createdAt,value
2022-12-18T00:01:27.579Z,97.94
2022-12-18T00:03:55.878Z,97.81
2022-12-18T00:06:24.356Z,97.94
2022-12-18T00:08:50.983Z,98.01
2022-12-18T00:11:19.783Z,97.86
2022-12-18T00:13:47.225Z,97.88
2022-12-18T00:16:16.252Z,97.98
2022-12-18T00:18:43.855Z,97.96
2022-12-18T00:21:11.997Z,97.97
2022-12-18T00:23:40.571Z,97.99
2022-12-18T00:26:19.683Z,97.99
2022-12-18T00:28:47.034Z,98.17
2022-12-18T00:31:16.745Z,97.91
2022-12-18T00:33:43.865Z,97.98
2022-12-18T00:36:16.560Z,97.87
2022-12-18T00:38:44.453Z,98.17
2022-12-18T00:41:12.751Z,98.09
2022-12-18T00:43:41.129Z,98.19
2022-12-18T00:46:07.964Z,98.01
2022-12-18T00:48:34.509Z,98.17
2022-12-18T00:51:00.996Z,98.01
2022-12-18T00:53:27.484Z,98.14
2022-12-18T00:55:53.972Z,98.16
2022-12-18T00:58:20.471Z,98.09
2022-12-18T01:00:47.112Z,98.09
2022-12-18T01:03:16.451Z,98.12
2022-12-18T01:05:43.478Z,98.21
2022-12-18T01:08:10.775Z,98.45
2022-12-18T01:10:37.346Z,98.19
2022-12-18T01:13:03.945Z,98.18
2022-12-18T01:15:30.379Z,98.26
2022-12-18T01:17:56.886Z,98.29
2022-12-18T01:20:23.454Z,98.12
2022-12-18T01:22:49.891Z,98.00
2022-12-18T01:25:16.559Z,98.10
2022-12-18T01:27:43.044Z,97.97
2022-12-18T01:30:09.966Z,97.80
2022-12-18T01:32:36.578Z,98.28
2022-12-18T01:35:03.236Z,97.97
2022-12-18T01:37:30.041Z,98.06
2022-12-18T01:39:56.616Z,98.13
2022-12-18T01:42:23.510Z,98.24
2022-12-18T01:44:59.226Z,98.06
2022-12-18T01:47:31.520Z,97.83
2022-12-18T01:50:00.448Z,97.74
2022-12-18T01:52:33.621Z,97.99
2022-12-18T01:55:02.353Z,97.99
2022-12-18T01:57:29.540Z,97.99
2022-12-18T02:00:01.821Z,97.90
2022-12-18T02:02:30.052Z,98.24
2022-12-18T02:04:56.787Z,97.98
2022-12-18T02:07:35.320Z,97.98
2022-12-18T02:10:12.085Z,98.16
2022-12-18T02:13:03.903Z,98.39
2022-12-18T02:16:04.290Z,98.18
2022-12-18T02:18:39.336Z,98.15
2022-12-18T02:21:24.089Z,98.46
2022-12-18T02:24:13.772Z,98.43
2022-12-18T02:26:48.664Z,98.34
2022-12-18T02:29:24.778Z,98.60
2022-12-18T02:31:55.336Z,98.64
2022-12-18T02:34:26.943Z,98.68
2022-12-18T02:36:55.306Z,98.63
2022-12-18T02:39:24.676Z,98.44
2022-12-18T02:41:51.780Z,98.68
2022-12-18T02:44:18.323Z,98.85
2022-12-18T02:46:49.789Z,98.84
2022-12-18T02:49:16.204Z,98.87
2022-12-18T02:51:54.758Z,99.08
2022-12-18T02:54:41.744Z,99.05
2022-12-18T02:57:31.369Z,98.92
2022-12-18T03:00:01.891Z,99.15
2022-12-18T03:03:00.649Z,98.91
2022-12-18T03:05:40.001Z,99.22
2022-12-18T03:08:24.326Z,99.03
2022-12-18T03:10:56.974Z,99.06
2022-12-18T03:13:34.304Z,98.99
2022-12-18T03:16:02.453Z,99.36
2022-12-18T03:18:36.640Z,99.07
2022-12-18T03:21:06.510Z,99.24
2022-12-18T03:23:41.605Z,98.94
2022-12-18T03:26:13.020Z,99.27
2022-12-18T03:28:44.894Z,99.00
2022-12-18T03:31:14.654Z,98.78
2022-12-18T03:33:43.793Z,99.00
2022-12-18T03:36:10.633Z,98.98
2022-12-18T03:38:37.161Z,99.16
2022-12-18T03:41:22.566Z,99.38
2022-12-18T03:44:14.850Z,99.13
2022-12-18T03:46:59.625Z,99.35
2022-12-18T03:49:41.789Z,99.36
2022-12-18T03:52:15.686Z,99.37
2022-12-18T03:54:43.607Z,99.16
2022-12-18T03:57:19.116Z,99.44
2022-12-18T03:59:49.768Z,99.19
2022-12-18T04:02:18.353Z,99.12
2022-12-18T04:04:48.692Z,99.08
2022-12-18T04:07:16.719Z,99.08
2022-12-18T04:09:46.513Z,98.97
2022-12-18T04:12:13.024Z,99.06
2022-12-18T04:14:40.354Z,99.26
2022-12-18T04:17:07.082Z,99.17
2022-12-18T04:19:33.848Z,99.30
2022-12-18T04:22:00.338Z,99.34
2022-12-18T04:24:26.904Z,99.20
2022-12-18T04:26:53.441Z,98.94
2022-12-18T04:29:20.050Z,99.20
2022-12-18T04:31:46.485Z,98.91
2022-12-18T04:34:13.036Z,99.06
2022-12-18T04:36:39.584Z,99.34
2022-12-18T04:39:06.060Z,99.09
2022-12-18T04:41:32.547Z,98.90
2022-12-18T04:43:59.067Z,99.04
2022-12-18T04:46:25.558Z,98.79
2022-12-18T04:48:51.995Z,98.72
2022-12-18T04:51:24.631Z,98.86
2022-12-18T04:53:52.717Z,98.96
2022-12-18T04:56:19.247Z,99.09
2022-12-18T04:58:45.892Z,98.96
2022-12-18T05:01:14.656Z,99.02
2022-12-18T05:03:41.679Z,99.17
2022-12-18T05:06:08.912Z,99.15
2022-12-18T05:08:36.041Z,98.98
2022-12-18T05:11:05.293Z,98.93
2022-12-18T05:13:32.918Z,98.79
2022-12-18T05:15:59.840Z,98.75
2022-12-18T05:18:27.064Z,98.69
2022-12-18T05:20:54.260Z,98.71
2022-12-18T05:23:21.985Z,98.69
2022-12-18T05:25:55.178Z,98.68
2022-12-18T05:28:22.845Z,98.91
2022-12-18T05:30:53.700Z,98.55
2022-12-18T05:33:22.113Z,98.72
2022-12-18T05:35:53.112Z,98.97
2022-12-18T05:38:20.754Z,98.96
2022-12-18T05:40:49.179Z,98.99
2022-12-18T05:43:20.993Z,98.66
2022-12-18T05:45:48.848Z,98.90
2022-12-18T05:48:15.950Z,98.67
2022-12-18T05:50:46.376Z,98.64
2022-12-18T05:53:15.328Z,98.83
2022-12-18T05:55:43.792Z,98.79
2022-12-18T05:58:12.307Z,98.79
2022-12-18T06:00:41.437Z,98.60
2022-12-18T06:03:09.677Z,98.49
2022-12-18T06:05:38.281Z,98.60
2022-12-18T06:08:05.366Z,98.73
2022-12-18T06:10:32.260Z,98.37
2022-12-18T06:12:58.863Z,98.57
2022-12-18T06:15:25.573Z,98.40
2022-12-18T06:17:52.547Z,98.67
2022-12-18T06:20:19.783Z,98.36
2022-12-18T06:22:46.588Z,98.64
2022-12-18T06:25:13.072Z,98.33
2022-12-18T06:27:39.739Z,98.32
2022-12-18T06:30:07.179Z,98.49
2022-12-18T06:32:33.748Z,98.47
2022-12-18T06:35:00.217Z,98.56
2022-12-18T06:37:27.340Z,98.48
2022-12-18T06:39:57.549Z,98.46
2022-12-18T06:42:25.004Z,98.51
2022-12-18T06:44:51.576Z,98.58
2022-12-18T06:47:18.160Z,98.36
2022-12-18T06:49:44.635Z,98.42
2022-12-18T06:52:11.119Z,98.08
2022-12-18T06:54:37.728Z,98.62
2022-12-18T06:57:04.365Z,98.33
2022-12-18T06:59:30.887Z,98.33
2022-12-18T07:01:57.514Z,98.12
2022-12-18T07:04:29.311Z,98.65
2022-12-18T07:06:55.719Z,98.24
2022-12-18T07:09:22.259Z,98.45
2022-12-18T07:11:48.715Z,98.23
2022-12-18T07:14:15.140Z,98.00
2022-12-18T07:16:41.872Z,98.25
2022-12-18T07:19:08.519Z,98.04
2022-12-18T07:21:35.027Z,98.44
2022-12-18T07:24:01.660Z,98.54
2022-12-18T07:26:28.166Z,98.13
2022-12-18T07:28:58.660Z,98.13
2022-12-18T07:31:26.634Z,98.42
2022-12-18T07:33:53.584Z,98.23
2022-12-18T07:36:20.843Z,98.35
2022-12-18T07:38:52.685Z,98.24
2022-12-18T07:41:19.784Z,98.36
2022-12-18T07:43:46.597Z,98.00
2022-12-18T07:46:17.580Z,98.18
2022-12-18T07:48:46.198Z,98.42
2022-12-18T07:51:17.241Z,97.90
2022-12-18T07:53:45.017Z,98.08
2022-12-18T07:56:30.395Z,98.05
2022-12-18T07:58:58.124Z,98.08
2022-12-18T08:01:25.330Z,98.11
2022-12-18T08:03:52.522Z,97.91
2022-12-18T08:06:22.448Z,97.84
2022-12-18T08:08:55.370Z,97.70
2022-12-18T08:11:22.138Z,97.94
2022-12-18T08:13:48.649Z,97.89
2022-12-18T08:16:16.034Z,97.61
2022-12-18T08:18:42.576Z,97.83
2022-12-18T08:21:14.228Z,97.54
2022-12-18T08:23:43.412Z,97.51
2022-12-18T08:26:11.492Z,97.59
2022-12-18T08:28:38.182Z,97.18
2022-12-18T08:31:05.532Z,96.96
2022-12-18T08:33:32.784Z,97.32
2022-12-18T08:36:00.438Z,96.80
2022-12-18T08:38:27.027Z,97.17
2022-12-18T08:41:04.563Z,96.68
2022-12-18T08:43:49.607Z,96.86
2022-12-18T08:46:16.255Z,97.11
2022-12-18T08:48:43.000Z,96.70
2022-12-18T08:51:10.607Z,96.89
2022-12-18T08:53:37.984Z,96.63
2022-12-18T08:56:05.528Z,96.75
2022-12-18T08:58:32.046Z,96.73
2022-12-18T09:01:06.849Z,96.33
2022-12-18T09:03:34.002Z,96.59
2022-12-18T09:06:00.522Z,96.50
2022-12-18T09:08:27.470Z,95.92
2022-12-18T09:10:54.151Z,96.08
2022-12-18T09:13:20.678Z,96.12
2022-12-18T09:15:50.443Z,96.00
2022-12-18T09:18:18.596Z,95.71
2022-12-18T09:20:45.496Z,95.93
2022-12-18T09:23:12.705Z,95.72
2022-12-18T09:25:39.791Z,95.85
2022-12-18T09:28:11.317Z,96.02
2022-12-18T09:30:42.370Z,96.14
2022-12-18T09:33:09.083Z,95.67
2022-12-18T09:35:43.407Z,95.62
2022-12-18T09:38:14.159Z,95.50
2022-12-18T09:40:48.394Z,95.34
2022-12-18T09:43:20.764Z,95.48
2022-12-18T09:45:52.126Z,95.17
2022-12-18T09:48:24.779Z,95.52
2022-12-18T09:50:56.748Z,95.43
2022-12-18T09:53:27.779Z,95.40
2022-12-18T09:55:55.694Z,95.59
2022-12-18T09:58:41.238Z,95.29
2022-12-18T10:01:13.079Z,95.69
2022-12-18T10:03:39.606Z,95.67
2022-12-18T10:06:19.466Z,95.67
2022-12-18T10:09:01.491Z,95.80
2022-12-18T10:12:00.365Z,95.75
2022-12-18T10:14:54.274Z,95.59
2022-12-18T10:17:26.877Z,95.72
2022-12-18T10:20:28.992Z,95.69
2022-12-18T10:22:55.489Z,95.20
2022-12-18T10:25:27.977Z,95.30
2022-12-18T10:27:58.718Z,95.68
2022-12-18T10:30:26.511Z,95.65
2022-12-18T10:32:53.464Z,95.20
2022-12-18T10:35:23.692Z,95.51
2022-12-18T10:38:12.569Z,95.34
2022-12-18T10:40:59.615Z,95.17
2022-12-18T10:43:27.536Z,95.38
2022-12-18T10:46:03.265Z,95.00
2022-12-18T10:48:32.153Z,95.32
2022-12-18T10:51:10.935Z,95.16
2022-12-18T10:53:42.626Z,95.20
2022-12-18T10:56:10.607Z,95.14
2022-12-18T10:58:39.858Z,94.79
2022-12-18T11:01:17.365Z,94.34
2022-12-18T11:03:47.042Z,94.43
2022-12-18T11:06:18.741Z,94.07
2022-12-18T11:08:59.443Z,94.17
2022-12-18T11:11:26.669Z,94.39
2022-12-18T11:14:07.737Z,94.04
2022-12-18T11:16:37.874Z,94.03
2022-12-18T11:19:42.305Z,93.97
2022-12-18T11:22:25.724Z,93.88
2022-12-18T11:25:30.973Z,93.07
2022-12-18T11:27:55.904Z,93.23
2022-12-18T11:30:24.714Z,93.05
2022-12-18T11:33:32.940Z,93.16
2022-12-18T11:36:05.233Z,92.69
2022-12-18T11:38:43.596Z,92.97
2022-12-18T11:41:46.822Z,92.52
2022-12-18T11:44:20.948Z,92.25
2022-12-18T11:46:56.137Z,91.93
2022-12-18T11:49:35.778Z,91.93
2022-12-18T11:52:02.143Z,91.71
2022-12-18T11:54:28.642Z,91.61
2022-12-18T11:57:25.956Z,91.13
2022-12-18T12:00:10.804Z,91.33
2022-12-18T12:02:46.205Z,91.05
2022-12-18T12:05:30.444Z,90.79
2022-12-18T12:08:10.096Z,90.68
2022-12-18T12:10:39.572Z,90.84
2022-12-18T12:13:18.204Z,90.54
2022-12-18T12:16:06.302Z,90.24
2022-12-18T12:18:35.669Z,90.15
2022-12-18T12:21:14.231Z,90.34
2022-12-18T12:24:37.364Z,90.25
2022-12-18T12:27:13.208Z,90.38
2022-12-18T12:30:10.511Z,90.06
2022-12-18T12:32:37.129Z,89.57
2022-12-18T12:35:17.603Z,89.39
2022-12-18T12:37:59.392Z,89.48
2022-12-18T12:43:31.849Z,89.05
2022-12-18T12:46:04.191Z,88.64
2022-12-18T12:48:30.968Z,88.27
2022-12-18T12:50:58.972Z,88.65
2022-12-18T12:53:34.632Z,88.31
2022-12-18T12:56:02.959Z,88.12
2022-12-18T12:58:33.202Z,88.06
2022-12-18T13:01:11.099Z,88.40
2022-12-18T13:03:57.297Z,88.33
2022-12-18T13:06:38.341Z,88.25
2022-12-18T13:09:09.502Z,87.84
2022-12-18T13:12:04.447Z,87.87
2022-12-18T13:14:35.375Z,87.86
2022-12-18T13:17:20.865Z,87.51
2022-12-18T13:19:52.328Z,87.61
2022-12-18T13:22:31.743Z,87.33
2022-12-18T13:24:58.699Z,87.87
2022-12-18T13:27:44.340Z,87.46
2022-12-18T13:30:33.779Z,87.32
2022-12-18T13:33:15.456Z,87.31
2022-12-18T13:35:49.067Z,87.60
2022-12-18T13:38:38.223Z,87.79
2022-12-18T13:41:19.779Z,87.50
2022-12-18T13:43:52.076Z,87.51
2022-12-18T13:46:42.918Z,87.11
2022-12-18T13:49:15.196Z,87.30
2022-12-18T13:51:45.213Z,87.45
2022-12-18T13:54:36.594Z,87.01
2022-12-18T13:57:04.770Z,87.07
2022-12-18T13:59:39.277Z,87.01
2022-12-18T14:02:22.314Z,87.02
2022-12-18T14:04:51.402Z,87.21
2022-12-18T14:07:21.910Z,87.12
2022-12-18T14:10:12.169Z,86.92
2022-12-18T14:13:01.009Z,87.01
2022-12-18T14:15:35.687Z,87.06
2022-12-18T14:18:09.690Z,87.40
2022-12-18T14:20:36.513Z,87.29
2022-12-18T14:23:03.027Z,86.79
2022-12-18T14:25:31.212Z,86.77
2022-12-18T14:28:23.834Z,86.56
2022-12-18T14:30:50.782Z,86.60
2022-12-18T14:33:20.288Z,86.67
2022-12-18T14:35:57.717Z,86.34
2022-12-18T14:38:27.143Z,86.41
2022-12-18T14:41:14.743Z,86.70
2022-12-18T14:43:46.527Z,86.04
2022-12-18T14:46:38.419Z,86.35
2022-12-18T14:49:20.512Z,86.12
2022-12-18T14:51:53.404Z,85.90
2022-12-18T14:54:22.028Z,86.09
2022-12-18T14:56:52.309Z,86.09
2022-12-18T14:59:27.097Z,85.32
2022-12-18T15:02:23.183Z,85.61
2022-12-18T15:05:17.310Z,85.94
2022-12-18T15:07:51.384Z,85.68
2022-12-18T15:10:21.642Z,85.85
2022-12-18T15:12:57.533Z,85.47
2022-12-18T15:15:40.473Z,85.83
2022-12-18T15:18:11.358Z,85.45
2022-12-18T15:20:51.481Z,85.13
2022-12-18T15:23:36.532Z,84.97
2022-12-18T15:26:09.933Z,84.92
2022-12-18T15:28:45.997Z,85.28
2022-12-18T15:31:13.261Z,85.07
2022-12-18T15:33:51.371Z,85.03
2022-12-18T15:36:18.985Z,85.02
2022-12-18T15:38:56.071Z,84.86
2022-12-18T15:41:34.525Z,85.04
2022-12-18T15:44:02.746Z,85.12
2022-12-18T15:46:31.805Z,84.72
2022-12-18T15:49:02.178Z,84.87
2022-12-18T15:51:30.761Z,84.97
2022-12-18T15:53:59.548Z,84.86
2022-12-18T15:56:44.998Z,84.61
2022-12-18T15:59:18.043Z,83.95
2022-12-18T16:01:47.083Z,84.48
2022-12-18T16:04:15.350Z,84.34
2022-12-18T16:07:12.618Z,84.93
2022-12-18T16:09:28.656Z,84.40
2022-12-18T16:11:55.332Z,84.52
2022-12-18T16:14:30.332Z,84.01
2022-12-18T16:17:02.582Z,84.10
2022-12-18T16:19:30.262Z,84.22
2022-12-18T16:21:58.538Z,83.89
2022-12-18T16:24:27.354Z,84.21
2022-12-18T16:26:54.644Z,84.10
2022-12-18T16:29:25.719Z,83.92
2022-12-18T16:31:52.541Z,84.02
2022-12-18T16:34:32.132Z,84.07
2022-12-18T16:37:07.081Z,84.24
2022-12-18T16:39:35.471Z,83.62
2022-12-18T16:42:17.111Z,83.46
2022-12-18T16:44:44.565Z,83.82
2022-12-18T16:47:11.776Z,83.52
2022-12-18T16:49:41.829Z,83.02
2022-12-18T16:52:08.720Z,83.28
2022-12-18T16:54:36.760Z,83.36
2022-12-18T16:57:05.209Z,83.52
2022-12-18T16:59:31.771Z,83.00
2022-12-18T17:01:58.699Z,82.96
2022-12-18T17:04:25.401Z,83.24
2022-12-18T17:06:53.872Z,83.06
2022-12-18T17:09:27.817Z,82.56
2022-12-18T17:11:54.623Z,82.50
2022-12-18T17:14:23.571Z,82.73
2022-12-18T17:17:19.101Z,83.09
2022-12-18T17:19:38.789Z,82.58
2022-12-18T17:22:05.330Z,82.44
2022-12-18T17:24:35.166Z,82.55
2022-12-18T17:27:02.793Z,83.19
2022-12-18T17:29:29.346Z,82.64
2022-12-18T17:31:55.944Z,83.23
2022-12-18T17:34:23.902Z,82.95
2022-12-18T17:36:50.397Z,83.28
2022-12-18T17:39:20.046Z,82.82
2022-12-18T17:41:47.431Z,83.11
2022-12-18T17:44:14.407Z,83.58
2022-12-18T17:46:41.071Z,82.63
2022-12-18T17:49:07.577Z,82.77
2022-12-18T17:51:34.047Z,83.03
2022-12-18T17:54:00.684Z,83.00
2022-12-18T17:56:27.737Z,82.71
2022-12-18T17:58:54.301Z,82.98
2022-12-18T18:01:24.017Z,82.59
2022-12-18T18:03:53.542Z,82.59
2022-12-18T18:06:20.597Z,83.06
2022-12-18T18:08:47.197Z,82.76
2022-12-18T18:11:36.254Z,82.78
2022-12-18T18:14:05.165Z,82.63
2022-12-18T18:16:35.636Z,82.85
2022-12-18T18:19:05.386Z,82.91
2022-12-18T18:21:32.913Z,82.78
2022-12-18T18:24:03.270Z,82.43
2022-12-18T18:26:34.045Z,82.86
2022-12-18T18:29:02.516Z,83.02
2022-12-18T18:31:32.018Z,82.42
2022-12-18T18:34:00.991Z,83.19
2022-12-18T18:36:27.631Z,82.88
2022-12-18T18:38:54.294Z,82.40
2022-12-18T18:41:22.256Z,82.92
2022-12-18T18:43:48.700Z,82.81
2022-12-18T18:46:16.533Z,83.21
2022-12-18T18:48:43.944Z,82.88
2022-12-18T18:51:21.412Z,82.18
2022-12-18T18:53:50.728Z,82.73
2022-12-18T18:56:45.390Z,82.67
2022-12-18T18:59:06.189Z,82.25
2022-12-18T19:01:33.251Z,81.88
2022-12-18T19:04:00.780Z,81.87
2022-12-18T19:06:28.404Z,81.86
2022-12-18T19:08:57.141Z,82.13
2022-12-18T19:11:43.778Z,82.38
2022-12-18T19:14:12.570Z,82.00
2022-12-18T19:16:40.015Z,81.44
2022-12-18T19:19:07.532Z,81.55
2022-12-18T19:21:35.051Z,81.39
2022-12-18T19:24:02.663Z,81.54
2022-12-18T19:26:29.586Z,81.64
2022-12-18T19:29:06.644Z,81.46
2022-12-18T19:31:36.450Z,81.10
2022-12-18T19:34:05.457Z,81.60
2022-12-18T19:36:33.462Z,81.30
2022-12-18T19:39:01.586Z,81.24
2022-12-18T19:41:31.257Z,80.92
2022-12-18T19:44:00.955Z,80.98
2022-12-18T19:46:34.720Z,81.00
2022-12-18T19:49:01.250Z,81.26
2022-12-18T19:51:29.930Z,81.15
2022-12-18T19:53:59.945Z,81.75
2022-12-18T19:56:31.134Z,82.33
2022-12-18T19:58:57.948Z,83.19
2022-12-18T20:01:26.206Z,84.08
2022-12-18T20:03:55.315Z,84.74
2022-12-18T20:06:32.288Z,85.06
2022-12-18T20:09:01.667Z,85.28
2022-12-18T20:11:32.237Z,86.13
2022-12-18T20:14:01.542Z,87.02
2022-12-18T20:16:28.570Z,87.27
2022-12-18T20:18:56.595Z,87.89
2022-12-18T20:21:23.603Z,87.90
2022-12-18T20:23:50.245Z,88.39
2022-12-18T20:26:16.880Z,88.74
2022-12-18T20:28:43.434Z,88.83
2022-12-18T20:31:13.220Z,89.23
2022-12-18T20:33:41.848Z,89.76
2022-12-18T20:36:14.333Z,90.18
2022-12-18T20:38:42.544Z,90.13
2022-12-18T20:41:16.868Z,90.84
2022-12-18T20:43:44.694Z,90.73
2022-12-18T20:46:14.126Z,91.41
2022-12-18T20:48:41.039Z,91.70
2022-12-18T20:51:10.231Z,91.63
2022-12-18T20:53:38.537Z,92.01
2022-12-18T20:56:10.463Z,92.37
2022-12-18T20:58:37.166Z,92.26
2022-12-18T21:01:15.594Z,92.75
2022-12-18T21:03:44.019Z,92.65
2022-12-18T21:06:10.719Z,93.00
2022-12-18T21:08:37.923Z,93.06
2022-12-18T21:11:38.454Z,93.42
2022-12-18T21:14:09.511Z,93.19
2022-12-18T21:16:36.105Z,94.05
2022-12-18T21:19:02.841Z,93.84
2022-12-18T21:21:29.544Z,94.66
2022-12-18T21:23:58.950Z,94.64
2022-12-18T21:26:28.072Z,94.70
2022-12-18T21:28:56.536Z,94.91
2022-12-18T21:31:25.652Z,95.33
2022-12-18T21:33:54.090Z,95.42
2022-12-18T21:36:28.176Z,95.58
2022-12-18T21:38:55.607Z,95.99
2022-12-18T21:41:42.284Z,95.60
2022-12-18T21:44:11.388Z,95.91
2022-12-18T21:46:44.090Z,96.34
2022-12-18T21:49:14.419Z,96.17
2022-12-18T21:51:41.432Z,96.32
2022-12-18T21:54:07.907Z,96.60
2022-12-18T21:56:49.492Z,96.81
2022-12-18T21:59:19.751Z,96.63
2022-12-18T22:01:47.313Z,96.80
2022-12-18T22:04:14.194Z,97.03
2022-12-18T22:06:42.688Z,97.03
2022-12-18T22:09:12.247Z,96.83
2022-12-18T22:11:38.942Z,97.27
2022-12-18T22:14:05.465Z,97.30
2022-12-18T22:16:32.028Z,97.32
2022-12-18T22:18:58.651Z,97.45
2022-12-18T22:21:30.551Z,97.89
2022-12-18T22:23:59.651Z,98.10
2022-12-18T22:26:28.069Z,97.96
2022-12-18T22:29:13.012Z,97.80
2022-12-18T22:31:40.049Z,98.34
2022-12-18T22:34:07.257Z,98.50
2022-12-18T22:36:48.050Z,98.59
2022-12-18T22:39:23.512Z,98.85
2022-12-18T22:41:51.423Z,99.07
2022-12-18T22:44:18.293Z,99.16
2022-12-18T22:47:05.450Z,99.31
2022-12-18T22:49:33.914Z,99.67
2022-12-18T22:52:03.119Z,99.61
2022-12-18T22:54:29.876Z,99.15
2022-12-18T22:56:57.017Z,99.61
2022-12-18T22:59:23.798Z,99.38
2022-12-18T23:01:58.379Z,99.58
2022-12-18T23:04:35.884Z,99.51
2022-12-18T23:07:02.582Z,99.95
2022-12-18T23:09:29.092Z,100.00
2022-12-18T23:11:55.590Z,100.00
2022-12-18T23:14:22.106Z,99.82
2022-12-18T23:16:48.902Z,100.00
2022-12-18T23:19:17.221Z,100.00
2022-12-18T23:21:43.848Z,100.00
2022-12-18T23:24:10.775Z,100.00
2022-12-18T23:26:37.919Z,100.00
2022-12-18T23:29:05.400Z,100.00
2022-12-18T23:31:34.568Z,100.00
2022-12-18T23:34:02.580Z,100.00
2022-12-18T23:36:30.816Z,100.00
2022-12-18T23:39:02.517Z,100.00
2022-12-18T23:41:31.303Z,100.00
2022-12-18T23:43:59.364Z,100.00
2022-12-18T23:46:31.344Z,100.00
2022-12-18T23:48:59.350Z,100.00
2022-12-18T23:51:26.436Z,100.00
2022-12-18T23:53:54.375Z,100.00
2022-12-18T23:56:21.556Z,100.00
2022-12-18T23:58:48.564Z,100.00
